sensor_id;sensor_type;location;lat;lon;timestamp;pressure;altitude;pressure_sealevel;temperature;humidity
13553;BME280;6847;48.830;9.116;2022-08-04T00:01:28;97627.34;;;27.14;34.55
13553;BME280;6847;48.830;9.116;2022-08-04T00:04:23;97702.19;;;27.61;34.44
13553;BME280;6847;48.830;9.116;2022-08-04T00:07:24;97688.22;;;27.47;34.53
13553;BME280;6847;48.830;9.116;2022-08-04T00:10:16;97690.56;;;27.38;34.66
13553;BME280;6847;48.830;9.116;2022-08-04T00:13:04;97699.72;;;27.46;34.88
13553;BME280;6847;48.830;9.116;2022-08-04T00:15:52;97706.09;;;27.46;34.85
13553;BME280;6847;48.830;9.116;2022-08-04T00:18:47;97701.72;;;27.45;34.79
13553;BME280;6847;48.830;9.116;2022-08-04T00:21:38;97691.34;;;27.35;35.07
13553;BME280;6847;48.830;9.116;2022-08-04T00:24:24;97707.66;;;27.44;35.04
13553;BME280;6847;48.830;9.116;2022-08-04T00:27:14;97691.00;;;27.40;35.08
13553;BME280;6847;48.830;9.116;2022-08-04T00:30:03;97698.53;;;27.40;34.89
13553;BME280;6847;48.830;9.116;2022-08-04T00:32:49;97702.88;;;27.37;35.26
13553;BME280;6847;48.830;9.116;2022-08-04T00:35:37;97704.47;;;27.35;35.18
13553;BME280;6847;48.830;9.116;2022-08-04T00:38:24;97594.59;;;26.61;35.30
13553;BME280;6847;48.830;9.116;2022-08-04T00:41:19;97701.28;;;27.29;35.32
13553;BME280;6847;48.830;9.116;2022-08-04T00:44:19;97696.50;;;27.26;35.70
13553;BME280;6847;48.830;9.116;2022-08-04T00:47:18;97693.31;;;27.24;35.79
13553;BME280;6847;48.830;9.116;2022-08-04T00:50:15;97696.47;;;27.19;35.62
13553;BME280;6847;48.830;9.116;2022-08-04T00:53:06;97682.16;;;27.10;35.60
13553;BME280;6847;48.830;9.116;2022-08-04T00:56:04;97693.25;;;27.13;35.97
13553;BME280;6847;48.830;9.116;2022-08-04T00:59:02;97678.88;;;26.94;36.18
13553;BME280;6847;48.830;9.116;2022-08-04T01:01:57;97699.56;;;27.00;36.07
13553;BME280;6847;48.830;9.116;2022-08-04T01:04:48;97696.75;;;26.93;36.37
13553;BME280;6847;48.830;9.116;2022-08-04T01:07:51;97701.84;;;26.87;36.18
13553;BME280;6847;48.830;9.116;2022-08-04T01:10:49;97691.47;;;26.77;36.49
13553;BME280;6847;48.830;9.116;2022-08-04T01:13:52;97685.06;;;26.62;36.93
13553;BME280;6847;48.830;9.116;2022-08-04T01:16:47;97694.16;;;26.59;36.71
13553;BME280;6847;48.830;9.116;2022-08-04T01:19:59;97699.25;;;26.50;36.84
13553;BME280;6847;48.830;9.116;2022-08-04T01:22:54;97700.41;;;26.42;37.29
13553;BME280;6847;48.830;9.116;2022-08-04T01:29:14;97691.13;;;26.24;37.45
13553;BME280;6847;48.830;9.116;2022-08-04T01:32:02;97686.28;;;26.13;37.62
13553;BME280;6847;48.830;9.116;2022-08-04T01:34:51;97693.44;;;26.14;37.73
13553;BME280;6847;48.830;9.116;2022-08-04T01:37:47;97677.88;;;26.03;37.78
13553;BME280;6847;48.830;9.116;2022-08-04T01:40:36;97667.91;;;25.98;37.84
13553;BME280;6847;48.830;9.116;2022-08-04T01:43:23;97692.59;;;26.10;37.71
13553;BME280;6847;48.830;9.116;2022-08-04T01:46:13;97687.78;;;26.07;37.79
13553;BME280;6847;48.830;9.116;2022-08-04T01:49:00;97655.13;;;25.83;37.87
13553;BME280;6847;48.830;9.116;2022-08-04T01:51:49;97664.63;;;25.86;38.02
13553;BME280;6847;48.830;9.116;2022-08-04T01:54:41;97687.00;;;26.03;37.99
13553;BME280;6847;48.830;9.116;2022-08-04T01:57:32;97685.41;;;26.02;38.15
13553;BME280;6847;48.830;9.116;2022-08-04T02:00:22;97673.81;;;25.93;38.41
13553;BME280;6847;48.830;9.116;2022-08-04T02:03:20;97658.34;;;25.92;38.59
13553;BME280;6847;48.830;9.116;2022-08-04T02:06:25;97689.41;;;26.08;38.48
13553;BME280;6847;48.830;9.116;2022-08-04T02:09:18;97680.66;;;26.03;38.13
13553;BME280;6847;48.830;9.116;2022-08-04T02:12:19;97639.56;;;25.71;38.64
13553;BME280;6847;48.830;9.116;2022-08-04T02:15:27;97682.94;;;25.94;38.44
13553;BME280;6847;48.830;9.116;2022-08-04T02:18:17;97685.25;;;25.88;38.75
13553;BME280;6847;48.830;9.116;2022-08-04T02:21:05;97685.25;;;25.85;38.61
13553;BME280;6847;48.830;9.116;2022-08-04T02:23:53;97682.00;;;25.79;38.83
13553;BME280;6847;48.830;9.116;2022-08-04T02:26:48;97657.31;;;25.63;38.86
13553;BME280;6847;48.830;9.116;2022-08-04T02:29:39;97675.97;;;25.70;38.98
13553;BME280;6847;48.830;9.116;2022-08-04T02:32:35;97670.81;;;25.65;39.25
13553;BME280;6847;48.830;9.116;2022-08-04T02:35:25;97654.41;;;25.53;39.12
13553;BME280;6847;48.830;9.116;2022-08-04T02:38:23;97666.72;;;25.59;39.25
13553;BME280;6847;48.830;9.116;2022-08-04T02:41:11;97656.72;;;25.47;39.52
13553;BME280;6847;48.830;9.116;2022-08-04T02:43:58;97667.47;;;25.52;39.62
13553;BME280;6847;48.830;9.116;2022-08-04T02:46:45;97657.13;;;25.46;39.39
13553;BME280;6847;48.830;9.116;2022-08-04T02:49:36;97666.63;;;25.48;39.68
13553;BME280;6847;48.830;9.116;2022-08-04T02:52:30;97668.59;;;25.48;39.52
13553;BME280;6847;48.830;9.116;2022-08-04T02:55:18;97665.00;;;25.43;39.68
13553;BME280;6847;48.830;9.116;2022-08-04T02:58:05;97663.41;;;25.42;39.62
13553;BME280;6847;48.830;9.116;2022-08-04T03:00:53;97661.81;;;25.41;39.82
13553;BME280;6847;48.830;9.116;2022-08-04T03:03:45;97659.41;;;25.36;39.92
13553;BME280;6847;48.830;9.116;2022-08-04T03:06:51;97663.75;;;25.37;39.97
13553;BME280;6847;48.830;9.116;2022-08-04T03:10:00;97666.50;;;25.37;40.04
13553;BME280;6847;48.830;9.116;2022-08-04T03:13:31;97642.59;;;25.22;40.02
13553;BME280;6847;48.830;9.116;2022-08-04T03:16:53;97653.75;;;25.29;40.19
13553;BME280;6847;48.830;9.116;2022-08-04T03:27:09;97668.28;;;25.19;40.62
13553;BME280;6847;48.830;9.116;2022-08-04T03:30:10;97527.88;;;24.23;40.52
13553;BME280;6847;48.830;9.116;2022-08-04T03:33:23;97611.53;;;24.73;40.75
13553;BME280;6847;48.830;9.116;2022-08-04T03:36:47;97650.09;;;24.88;40.91
13553;BME280;6847;48.830;9.116;2022-08-04T03:43:38;97676.31;;;24.94;40.94
13553;BME280;6847;48.830;9.116;2022-08-04T03:47:23;97680.16;;;24.86;41.09
13553;BME280;6847;48.830;9.116;2022-08-04T03:50:40;97686.38;;;24.80;41.12
13553;BME280;6847;48.830;9.116;2022-08-04T03:53:37;97658.09;;;24.63;41.45
13553;BME280;6847;48.830;9.116;2022-08-04T03:56:50;97679.09;;;24.68;41.47
13553;BME280;6847;48.830;9.116;2022-08-04T03:59:56;97677.56;;;24.70;41.48
13553;BME280;6847;48.830;9.116;2022-08-04T04:03:24;97676.81;;;24.74;41.58
13553;BME280;6847;48.830;9.116;2022-08-04T04:06:43;97678.34;;;24.71;41.59
13553;BME280;6847;48.830;9.116;2022-08-04T04:09:52;97638.50;;;24.49;41.50
13553;BME280;6847;48.830;9.116;2022-08-04T04:15:29;97655.41;;;24.70;41.69
13553;BME280;6847;48.830;9.116;2022-08-04T04:18:32;97671.34;;;24.81;41.74
13553;BME280;6847;48.830;9.116;2022-08-04T04:21:40;97668.59;;;24.81;41.88
13553;BME280;6847;48.830;9.116;2022-08-04T04:25:11;97668.16;;;24.79;41.94
13553;BME280;6847;48.830;9.116;2022-08-04T04:28:17;97655.03;;;24.72;42.08
13553;BME280;6847;48.830;9.116;2022-08-04T04:31:30;97667.34;;;24.75;42.01
13553;BME280;6847;48.830;9.116;2022-08-04T04:34:30;97670.91;;;24.75;42.07
13553;BME280;6847;48.830;9.116;2022-08-04T04:37:28;97670.53;;;24.77;42.17
13553;BME280;6847;48.830;9.116;2022-08-04T04:40:27;97672.13;;;24.78;42.15
13553;BME280;6847;48.830;9.116;2022-08-04T04:46:41;97670.19;;;24.82;42.20
13553;BME280;6847;48.830;9.116;2022-08-04T04:49:33;97672.25;;;24.88;42.42
13553;BME280;6847;48.830;9.116;2022-08-04T04:52:26;97667.50;;;24.89;42.37
13553;BME280;6847;48.830;9.116;2022-08-04T04:55:17;97677.88;;;24.92;42.37
13553;BME280;6847;48.830;9.116;2022-08-04T04:58:04;97684.75;;;25.05;42.43
13553;BME280;6847;48.830;9.116;2022-08-04T05:01:09;97686.00;;;25.11;42.37
13553;BME280;6847;48.830;9.116;2022-08-04T05:04:24;97686.09;;;25.18;42.57
13553;BME280;6847;48.830;9.116;2022-08-04T05:07:36;97681.84;;;25.28;42.36
13553;BME280;6847;48.830;9.116;2022-08-04T05:10:45;97685.09;;;25.37;42.32
13553;BME280;6847;48.830;9.116;2022-08-04T05:13:36;97690.38;;;25.46;42.38
13553;BME280;6847;48.830;9.116;2022-08-04T05:16:24;97686.50;;;25.54;42.52
13553;BME280;6847;48.830;9.116;2022-08-04T05:19:22;97686.59;;;25.61;42.32
13553;BME280;6847;48.830;9.116;2022-08-04T05:22:17;97663.16;;;25.55;42.36
13553;BME280;6847;48.830;9.116;2022-08-04T05:25:13;97682.00;;;25.79;42.40
13553;BME280;6847;48.830;9.116;2022-08-04T05:28:09;97688.81;;;25.85;42.25
13553;BME280;6847;48.830;9.116;2022-08-04T05:31:04;97688.88;;;25.96;42.51
13553;BME280;6847;48.830;9.116;2022-08-04T05:33:53;97686.19;;;26.03;42.14
13553;BME280;6847;48.830;9.116;2022-08-04T05:36:42;97691.81;;;26.13;42.30
13553;BME280;6847;48.830;9.116;2022-08-04T05:39:35;97689.13;;;26.24;42.43
13553;BME280;6847;48.830;9.116;2022-08-04T05:42:29;97697.56;;;26.35;42.05
13553;BME280;6847;48.830;9.116;2022-08-04T05:45:18;97698.44;;;26.46;42.50
13553;BME280;6847;48.830;9.116;2022-08-04T05:48:06;97695.72;;;26.53;42.36
13553;BME280;6847;48.830;9.116;2022-08-04T05:50:52;97687.84;;;26.62;42.09
13553;BME280;6847;48.830;9.116;2022-08-04T05:53:40;97689.88;;;26.72;42.31
13553;BME280;6847;48.830;9.116;2022-08-04T05:56:29;97687.94;;;26.83;42.24
13553;BME280;6847;48.830;9.116;2022-08-04T05:59:19;97695.56;;;26.94;42.25
13553;BME280;6847;48.830;9.116;2022-08-04T06:02:09;97690.03;;;27.01;41.72
13553;BME280;6847;48.830;9.116;2022-08-04T06:04:56;97674.97;;;27.02;41.97
13553;BME280;6847;48.830;9.116;2022-08-04T06:07:48;97695.72;;;27.29;41.71
13553;BME280;6847;48.830;9.116;2022-08-04T06:10:36;97667.09;;;27.18;41.84
13553;BME280;6847;48.830;9.116;2022-08-04T06:13:28;97701.34;;;27.50;41.68
13553;BME280;6847;48.830;9.116;2022-08-04T06:16:22;97695.41;;;27.62;41.57
13553;BME280;6847;48.830;9.116;2022-08-04T06:19:10;97700.63;;;27.75;41.42
13553;BME280;6847;48.830;9.116;2022-08-04T06:21:57;97697.47;;;27.87;41.47
13553;BME280;6847;48.830;9.116;2022-08-04T06:24:45;97672.81;;;27.89;41.68
13553;BME280;6847;48.830;9.116;2022-08-04T06:27:34;97696.66;;;28.15;41.22
13553;BME280;6847;48.830;9.116;2022-08-04T06:30:21;97702.69;;;28.27;41.08
13553;BME280;6847;48.830;9.116;2022-08-04T06:33:13;97701.06;;;28.41;41.14
13553;BME280;6847;48.830;9.116;2022-08-04T06:36:10;97703.84;;;28.55;41.07
13553;BME280;6847;48.830;9.116;2022-08-04T06:38:58;97698.25;;;28.62;41.01
13553;BME280;6847;48.830;9.116;2022-08-04T06:41:45;97702.22;;;28.79;40.72
13553;BME280;6847;48.830;9.116;2022-08-04T06:44:34;97706.53;;;29.01;40.74
13553;BME280;6847;48.830;9.116;2022-08-04T06:47:20;97698.13;;;29.12;40.57
13553;BME280;6847;48.830;9.116;2022-08-04T06:50:11;97606.31;;;28.65;40.40
13553;BME280;6847;48.830;9.116;2022-08-04T06:52:57;97699.63;;;29.41;40.23
13553;BME280;6847;48.830;9.116;2022-08-04T06:55:46;97606.63;;;28.92;39.88
13553;BME280;6847;48.830;9.116;2022-08-04T06:58:32;97715.75;;;29.78;39.90
13553;BME280;6847;48.830;9.116;2022-08-04T07:01:19;97710.88;;;29.93;40.08
13553;BME280;6847;48.830;9.116;2022-08-04T07:04:05;97708.75;;;30.11;39.51
13553;BME280;6847;48.830;9.116;2022-08-04T07:06:56;97713.41;;;30.28;39.36
13553;BME280;6847;48.830;9.116;2022-08-04T07:09:42;97716.09;;;30.42;39.31
13553;BME280;6847;48.830;9.116;2022-08-04T07:12:32;97709.56;;;30.60;39.30
13553;BME280;6847;48.830;9.116;2022-08-04T07:15:18;97713.75;;;30.78;38.93
13553;BME280;6847;48.830;9.116;2022-08-04T07:18:04;97709.56;;;30.97;39.00
13553;BME280;6847;48.830;9.116;2022-08-04T07:20:50;97712.97;;;31.15;38.93
13553;BME280;6847;48.830;9.116;2022-08-04T07:23:38;97710.00;;;31.30;38.48
13553;BME280;6847;48.830;9.116;2022-08-04T07:26:27;97701.78;;;31.46;38.41
13553;BME280;6847;48.830;9.116;2022-08-04T07:29:14;97707.13;;;31.67;38.21
13553;BME280;6847;48.830;9.116;2022-08-04T07:32:04;97704.38;;;31.90;37.84
13553;BME280;6847;48.830;9.116;2022-08-04T07:34:54;97704.06;;;32.12;37.78
13553;BME280;6847;48.830;9.116;2022-08-04T07:37:40;97705.44;;;32.27;37.73
13553;BME280;6847;48.830;9.116;2022-08-04T07:40:28;97706.72;;;32.46;37.52
13553;BME280;6847;48.830;9.116;2022-08-04T07:43:14;97702.72;;;32.66;37.08
13553;BME280;6847;48.830;9.116;2022-08-04T07:46:00;97704.44;;;32.84;37.35
13553;BME280;6847;48.830;9.116;2022-08-04T07:48:46;97700.84;;;33.03;36.83
13553;BME280;6847;48.830;9.116;2022-08-04T07:51:32;97705.31;;;33.20;36.47
13553;BME280;6847;48.830;9.116;2022-08-04T07:54:20;97702.59;;;33.36;36.39
13553;BME280;6847;48.830;9.116;2022-08-04T07:57:08;97700.56;;;33.57;36.07
13553;BME280;6847;48.830;9.116;2022-08-04T07:59:54;97697.97;;;33.66;36.42
13553;BME280;6847;48.830;9.116;2022-08-04T08:02:40;97695.16;;;33.66;36.04
13553;BME280;6847;48.830;9.116;2022-08-04T08:05:26;97701.34;;;33.93;36.14
13553;BME280;6847;48.830;9.116;2022-08-04T08:08:13;97692.06;;;34.12;35.77
13553;BME280;6847;48.830;9.116;2022-08-04T08:10:59;97698.34;;;34.36;35.04
13553;BME280;6847;48.830;9.116;2022-08-04T08:13:47;97681.88;;;34.51;34.89
13553;BME280;6847;48.830;9.116;2022-08-04T08:16:33;97693.63;;;34.78;34.88
13553;BME280;6847;48.830;9.116;2022-08-04T08:19:19;97693.91;;;34.97;34.51
13553;BME280;6847;48.830;9.116;2022-08-04T08:22:04;97692.75;;;35.10;34.29
13553;BME280;6847;48.830;9.116;2022-08-04T08:24:52;97691.63;;;35.20;34.47
13553;BME280;6847;48.830;9.116;2022-08-04T08:27:39;97695.19;;;35.37;34.28
13553;BME280;6847;48.830;9.116;2022-08-04T08:30:28;97663.13;;;35.35;34.24
13553;BME280;6847;48.830;9.116;2022-08-04T08:33:14;97682.28;;;35.65;33.59
13553;BME280;6847;48.830;9.116;2022-08-04T08:36:03;97681.75;;;35.83;33.49
13553;BME280;6847;48.830;9.116;2022-08-04T08:38:58;97690.19;;;36.08;33.36
13553;BME280;6847;48.830;9.116;2022-08-04T08:42:02;97693.94;;;36.30;32.97
13553;BME280;6847;48.830;9.116;2022-08-04T08:48:32;97688.53;;;36.71;32.59
13553;BME280;6847;48.830;9.116;2022-08-04T08:51:41;97698.94;;;36.95;32.23
13553;BME280;6847;48.830;9.116;2022-08-04T08:54:53;97676.69;;;36.97;32.13
13553;BME280;6847;48.830;9.116;2022-08-04T08:57:55;97694.91;;;37.18;32.02
13553;BME280;6847;48.830;9.116;2022-08-04T09:00:46;97700.56;;;37.40;31.43
13553;BME280;6847;48.830;9.116;2022-08-04T09:07:48;97702.34;;;37.77;31.45
13553;BME280;6847;48.830;9.116;2022-08-04T09:10:42;97650.25;;;37.57;31.20
13553;BME280;6847;48.830;9.116;2022-08-04T09:13:33;97702.06;;;37.85;31.01
13553;BME280;6847;48.830;9.116;2022-08-04T09:16:26;97709.00;;;37.93;30.43
13553;BME280;6847;48.830;9.116;2022-08-04T09:19:20;97705.56;;;37.98;30.31
13553;BME280;6847;48.830;9.116;2022-08-04T09:22:12;97706.59;;;38.13;30.16
13553;BME280;6847;48.830;9.116;2022-08-04T09:25:10;97705.72;;;38.34;30.26
13553;BME280;6847;48.830;9.116;2022-08-04T09:27:59;97695.34;;;38.49;29.95
13553;BME280;6847;48.830;9.116;2022-08-04T09:30:54;97705.81;;;38.80;29.60
13553;BME280;6847;48.830;9.116;2022-08-04T09:33:48;97708.66;;;38.98;29.62
13553;BME280;6847;48.830;9.116;2022-08-04T09:36:42;97703.63;;;39.20;29.40
13553;BME280;6847;48.830;9.116;2022-08-04T09:39:36;97692.25;;;39.48;29.01
13553;BME280;6847;48.830;9.116;2022-08-04T09:42:34;97700.69;;;39.75;28.74
13553;BME280;6847;48.830;9.116;2022-08-04T09:45:31;97687.06;;;39.98;28.24
13553;BME280;6847;48.830;9.116;2022-08-04T09:48:27;97689.88;;;40.07;28.18
13553;BME280;6847;48.830;9.116;2022-08-04T09:51:23;97684.47;;;40.18;28.28
13553;BME280;6847;48.830;9.116;2022-08-04T09:54:13;97693.19;;;40.38;27.82
13553;BME280;6847;48.830;9.116;2022-08-04T09:57:06;97690.75;;;41.47;26.44
13553;BME280;6847;48.830;9.116;2022-08-04T10:00:03;97697.31;;;42.67;25.06
13553;BME280;6847;48.830;9.116;2022-08-04T10:02:54;97693.03;;;44.80;23.63
13553;BME280;6847;48.830;9.116;2022-08-04T10:05:54;97697.22;;;47.02;21.67
13553;BME280;6847;48.830;9.116;2022-08-04T10:08:59;97694.19;;;48.80;20.15
13553;BME280;6847;48.830;9.116;2022-08-04T10:12:02;97697.34;;;49.19;20.51
13553;BME280;6847;48.830;9.116;2022-08-04T10:15:13;97700.91;;;49.95;19.53
13553;BME280;6847;48.830;9.116;2022-08-04T10:18:21;97699.00;;;50.56;19.70
13553;BME280;6847;48.830;9.116;2022-08-04T10:21:17;97695.00;;;50.98;19.12
13553;BME280;6847;48.830;9.116;2022-08-04T10:24:24;97684.38;;;51.40;18.35
13553;BME280;6847;48.830;9.116;2022-08-04T10:27:16;97666.78;;;51.52;18.49
13553;BME280;6847;48.830;9.116;2022-08-04T10:30:07;97680.41;;;52.06;17.89
13553;BME280;6847;48.830;9.116;2022-08-04T10:33:00;97686.66;;;51.76;18.23
13553;BME280;6847;48.830;9.116;2022-08-04T10:35:49;97687.78;;;51.05;17.94
13553;BME280;6847;48.830;9.116;2022-08-04T10:38:41;97677.16;;;50.87;18.60
13553;BME280;6847;48.830;9.116;2022-08-04T10:41:34;97682.59;;;50.77;17.96
13553;BME280;6847;48.830;9.116;2022-08-04T10:46:59;97618.03;;;48.68;19.29
13553;BME280;6847;48.830;9.116;2022-08-04T10:49:53;97668.59;;;48.58;19.42
13553;BME280;6847;48.830;9.116;2022-08-04T10:52:44;97666.41;;;49.25;18.86
13553;BME280;6847;48.830;9.116;2022-08-04T10:55:33;97670.56;;;49.62;18.26
13553;BME280;6847;48.830;9.116;2022-08-04T10:58:21;97654.91;;;48.39;18.97
13553;BME280;6847;48.830;9.116;2022-08-04T11:01:14;97672.09;;;47.91;19.18
13553;BME280;6847;48.830;9.116;2022-08-04T11:04:06;97673.38;;;46.72;19.74
13553;BME280;6847;48.830;9.116;2022-08-04T11:06:54;97671.69;;;45.52;20.71
13553;BME280;6847;48.830;9.116;2022-08-04T11:09:42;97667.78;;;45.49;20.32
13553;BME280;6847;48.830;9.116;2022-08-04T11:12:28;97671.06;;;46.59;19.62
13553;BME280;6847;48.830;9.116;2022-08-04T11:15:20;97666.16;;;46.49;19.45
13553;BME280;6847;48.830;9.116;2022-08-04T11:18:11;97658.97;;;45.64;19.98
13553;BME280;6847;48.830;9.116;2022-08-04T11:21:02;97653.97;;;44.55;20.55
13553;BME280;6847;48.830;9.116;2022-08-04T11:24:00;97656.22;;;43.97;20.60
13553;BME280;6847;48.830;9.116;2022-08-04T11:26:48;97658.47;;;43.56;20.93
13553;BME280;6847;48.830;9.116;2022-08-04T11:29:45;97666.31;;;43.15;21.13
13553;BME280;6847;48.830;9.116;2022-08-04T11:32:41;97658.59;;;43.73;20.46
13553;BME280;6847;48.830;9.116;2022-08-04T11:35:32;97666.84;;;44.87;19.80
13553;BME280;6847;48.830;9.116;2022-08-04T11:38:27;97662.00;;;46.38;18.55
13553;BME280;6847;48.830;9.116;2022-08-04T11:41:21;97676.47;;;47.67;17.99
13553;BME280;6847;48.830;9.116;2022-08-04T11:44:17;97669.91;;;48.56;17.41
13553;BME280;6847;48.830;9.116;2022-08-04T11:47:18;97669.66;;;49.35;16.90
13553;BME280;6847;48.830;9.116;2022-08-04T11:50:10;97665.47;;;49.68;16.97
13553;BME280;6847;48.830;9.116;2022-08-04T11:52:57;97665.13;;;49.40;17.32
13553;BME280;6847;48.830;9.116;2022-08-04T11:55:51;97675.00;;;49.63;16.81
13553;BME280;6847;48.830;9.116;2022-08-04T11:58:40;97661.31;;;49.82;17.08
13553;BME280;6847;48.830;9.116;2022-08-04T12:01:37;97670.00;;;49.95;17.11
13553;BME280;6847;48.830;9.116;2022-08-04T12:04:41;97671.28;;;49.81;17.01
13553;BME280;6847;48.830;9.116;2022-08-04T12:07:40;97625.03;;;49.28;17.17
13553;BME280;6847;48.830;9.116;2022-08-04T12:10:35;97647.25;;;49.09;17.48
13553;BME280;6847;48.830;9.116;2022-08-04T12:13:33;97657.38;;;48.97;17.46
13553;BME280;6847;48.830;9.116;2022-08-04T12:16:25;97662.81;;;48.82;17.51
13553;BME280;6847;48.830;9.116;2022-08-04T12:19:16;97656.72;;;48.67;17.55
13553;BME280;6847;48.830;9.116;2022-08-04T12:22:09;97659.00;;;48.49;17.64
13553;BME280;6847;48.830;9.116;2022-08-04T12:24:58;97647.41;;;48.36;17.75
13553;BME280;6847;48.830;9.116;2022-08-04T12:27:48;97648.94;;;48.13;17.79
13553;BME280;6847;48.830;9.116;2022-08-04T12:30:44;97653.81;;;47.94;17.72
13553;BME280;6847;48.830;9.116;2022-08-04T12:33:48;97638.00;;;47.81;17.83
13553;BME280;6847;48.830;9.116;2022-08-04T12:36:40;97644.97;;;47.92;17.67
13553;BME280;6847;48.830;9.116;2022-08-04T12:39:31;97652.56;;;47.89;17.58
13553;BME280;6847;48.830;9.116;2022-08-04T12:42:25;97649.13;;;47.61;17.73
13553;BME280;6847;48.830;9.116;2022-08-04T12:45:15;97606.06;;;47.36;17.48
13553;BME280;6847;48.830;9.116;2022-08-04T12:48:03;97636.34;;;47.92;17.39
13553;BME280;6847;48.830;9.116;2022-08-04T12:50:52;97629.31;;;48.41;17.10
13553;BME280;6847;48.830;9.116;2022-08-04T12:53:40;97625.81;;;48.91;16.94
13553;BME280;6847;48.830;9.116;2022-08-04T12:56:26;97633.25;;;49.38;16.66
13553;BME280;6847;48.830;9.116;2022-08-04T12:59:19;97632.53;;;49.82;16.58
13553;BME280;6847;48.830;9.116;2022-08-04T13:02:10;97629.31;;;49.73;16.11
13553;BME280;6847;48.830;9.116;2022-08-04T13:04:59;97626.06;;;49.95;16.29
13553;BME280;6847;48.830;9.116;2022-08-04T13:07:50;97627.28;;;50.39;16.29
13553;BME280;6847;48.830;9.116;2022-08-04T13:10:41;97632.00;;;51.02;15.81
13553;BME280;6847;48.830;9.116;2022-08-04T13:13:31;97626.38;;;51.52;15.12
13553;BME280;6847;48.830;9.116;2022-08-04T13:16:30;97632.03;;;51.23;15.76
13553;BME280;6847;48.830;9.116;2022-08-04T13:19:17;97625.06;;;51.19;15.75
13553;BME280;6847;48.830;9.116;2022-08-04T13:22:04;97615.91;;;51.41;15.42
13553;BME280;6847;48.830;9.116;2022-08-04T13:24:54;97619.66;;;51.70;14.97
13553;BME280;6847;48.830;9.116;2022-08-04T13:27:41;97616.81;;;51.98;14.75
13553;BME280;6847;48.830;9.116;2022-08-04T13:30:31;97609.28;;;52.24;14.94
13553;BME280;6847;48.830;9.116;2022-08-04T13:33:18;97610.25;;;52.55;14.39
13553;BME280;6847;48.830;9.116;2022-08-04T13:36:09;97601.06;;;52.71;14.50
13553;BME280;6847;48.830;9.116;2022-08-04T13:38:58;97612.69;;;52.79;14.65
13553;BME280;6847;48.830;9.116;2022-08-04T13:41:50;97611.19;;;52.93;14.31
13553;BME280;6847;48.830;9.116;2022-08-04T13:44:37;97607.97;;;52.61;14.30
13553;BME280;6847;48.830;9.116;2022-08-04T13:47:28;97596.38;;;51.96;14.54
13553;BME280;6847;48.830;9.116;2022-08-04T13:50:16;97599.22;;;51.68;14.81
13553;BME280;6847;48.830;9.116;2022-08-04T13:53:03;97600.19;;;51.50;15.00
13553;BME280;6847;48.830;9.116;2022-08-04T13:55:49;97586.00;;;50.84;15.16
13553;BME280;6847;48.830;9.116;2022-08-04T13:58:46;97586.50;;;49.95;15.15
13553;BME280;6847;48.830;9.116;2022-08-04T14:01:37;97575.28;;;49.34;15.33
13553;BME280;6847;48.830;9.116;2022-08-04T14:04:27;97572.22;;;48.94;15.05
13553;BME280;6847;48.830;9.116;2022-08-04T14:07:15;97567.06;;;48.49;15.71
13553;BME280;6847;48.830;9.116;2022-08-04T14:10:09;97570.97;;;48.71;15.39
13553;BME280;6847;48.830;9.116;2022-08-04T14:12:55;97571.84;;;49.35;14.93
13553;BME280;6847;48.830;9.116;2022-08-04T14:15:43;97562.03;;;49.89;14.82
13553;BME280;6847;48.830;9.116;2022-08-04T14:18:31;97570.53;;;50.47;14.79
13553;BME280;6847;48.830;9.116;2022-08-04T14:21:24;97569.34;;;51.03;14.17
13553;BME280;6847;48.830;9.116;2022-08-04T14:24:10;97575.13;;;51.44;13.75
13553;BME280;6847;48.830;9.116;2022-08-04T14:26:58;97555.56;;;51.51;14.02
13553;BME280;6847;48.830;9.116;2022-08-04T14:29:43;97559.34;;;51.87;13.78
13553;BME280;6847;48.830;9.116;2022-08-04T14:32:31;97567.72;;;52.27;13.92
13553;BME280;6847;48.830;9.116;2022-08-04T14:35:19;97565.84;;;52.37;14.12
13553;BME280;6847;48.830;9.116;2022-08-04T14:38:08;97547.69;;;52.29;13.92
13553;BME280;6847;48.830;9.116;2022-08-04T14:40:58;97562.16;;;52.36;13.83
13553;BME280;6847;48.830;9.116;2022-08-04T14:43:51;97557.16;;;52.01;14.08
13553;BME280;6847;48.830;9.116;2022-08-04T14:46:48;97504.16;;;51.70;13.69
13553;BME280;6847;48.830;9.116;2022-08-04T14:49:36;97559.97;;;51.93;13.88
13553;BME280;6847;48.830;9.116;2022-08-04T14:52:38;97529.78;;;51.53;13.87
13553;BME280;6847;48.830;9.116;2022-08-04T14:55:24;97550.72;;;51.25;13.86
13553;BME280;6847;48.830;9.116;2022-08-04T14:58:17;97545.03;;;51.32;14.29
13553;BME280;6847;48.830;9.116;2022-08-04T15:01:08;97548.88;;;51.56;14.23
13553;BME280;6847;48.830;9.116;2022-08-04T15:03:55;97543.13;;;51.84;13.47
13553;BME280;6847;48.830;9.116;2022-08-04T15:06:48;97505.47;;;51.40;14.08
13553;BME280;6847;48.830;9.116;2022-08-04T15:09:34;97536.06;;;51.64;14.08
13553;BME280;6847;48.830;9.116;2022-08-04T15:12:20;97537.88;;;51.75;13.57
13553;BME280;6847;48.830;9.116;2022-08-04T15:15:06;97535.19;;;51.77;14.19
13553;BME280;6847;48.830;9.116;2022-08-04T15:17:54;97540.44;;;51.86;13.72
13553;BME280;6847;48.830;9.116;2022-08-04T15:20:40;97542.03;;;51.87;13.86
13553;BME280;6847;48.830;9.116;2022-08-04T15:23:27;97536.69;;;51.91;13.94
13553;BME280;6847;48.830;9.116;2022-08-04T15:26:24;97540.63;;;51.81;13.62
13553;BME280;6847;48.830;9.116;2022-08-04T15:29:14;97537.91;;;51.54;13.79
13553;BME280;6847;48.830;9.116;2022-08-04T15:32:02;97538.69;;;51.34;13.64
13553;BME280;6847;48.830;9.116;2022-08-04T15:34:49;97531.97;;;51.18;14.04
13553;BME280;6847;48.830;9.116;2022-08-04T15:37:45;97540.50;;;51.03;14.28
13553;BME280;6847;48.830;9.116;2022-08-04T15:40:44;97538.56;;;51.05;13.86
13553;BME280;6847;48.830;9.116;2022-08-04T15:43:45;97546.88;;;51.22;14.08
13553;BME280;6847;48.830;9.116;2022-08-04T15:47:11;97537.00;;;51.38;14.21
13553;BME280;6847;48.830;9.116;2022-08-04T15:50:07;97533.59;;;51.06;13.67
13553;BME280;6847;48.830;9.116;2022-08-04T15:53:03;97519.81;;;50.31;13.93
13553;BME280;6847;48.830;9.116;2022-08-04T15:55:51;97521.81;;;49.70;14.38
13553;BME280;6847;48.830;9.116;2022-08-04T15:58:47;97465.50;;;49.29;14.17
13553;BME280;6847;48.830;9.116;2022-08-04T16:01:33;97517.16;;;49.54;14.78